Bookmark and Share
Track history (hours):
 

Tancred

Last reported at 2014-Apr-12 07:13 UTC. Time now 2014-Apr-24 00:07 UTC.
Position N 35°08' E 129°22'.
Warning: this ship's position is 11 days out of date.

Length 190 m; draft 7.5 m.

Type: Cargo ship. MMSI: 258787000.

NotesDate/timePositionNaut miles runAvg speedWind from/ knotsBaromVisibWave heightAir tempDewpointWater temp
2014-Apr-12 07:13N 35°08' E 129°22'188 4.5
2014-Apr-10 13:05N 33°01' E 132°09'915.3
2014-Apr-10 12:28N 32°53' E 132°14'1515.9
2014-Apr-10 11:33N 32°40' E 132°22'1515.4
2014-Apr-10 10:33N 32°37' E 132°40'1413.9
2014-Apr-10 09:33N 32°36' E 132°56'1312.7
2014-Apr-10 08:33N 32°36' E 133°11'34014.6
2014-Apr-09 09:13N 34°42' E 139°31'1116.2
2014-Apr-09 08:33N 34°52' E 139°34'1615.9
2014-Apr-09 07:33N 35°07' E 139°43'1211.8
2014-Apr-09 06:33N 35°18' E 139°44'1111.3
2014-Apr-09 05:33N 35°29' E 139°50'1312.7
2014-Apr-09 04:33N 35°35' E 140°03'2 2.1
2014-Apr-09 03:32N 35°36' E 140°06'0 0.0
2014-Apr-09 02:32N 35°36' E 140°06'0 0.0
2014-Apr-09 01:32N 35°36' E 140°06'0 0.0
2014-Apr-09 00:32N 35°36' E 140°06'0 0.0
2014-Apr-08 23:26N 35°36' E 140°06'0 0.0
2014-Apr-08 22:32N 35°36' E 140°06'6 6.6
2014-Apr-08 21:33N 35°32' E 139°59'1 0.5
2014-Apr-08 20:30N 35°32' E 139°59'0 0.0
2014-Apr-08 19:30N 35°32' E 139°59'0 0.0
2014-Apr-08 18:24N 35°32' E 139°59'0 0.0
2014-Apr-08 17:30N 35°32' E 139°59'0 0.0
2014-Apr-08 16:18N 35°32' E 139°58'0 0.0
2014-Apr-08 15:28N 35°32' E 139°58'0 0.0
2014-Apr-08 14:30N 35°32' E 139°58'0 0.0
2014-Apr-08 13:30N 35°32' E 139°58'0 0.0
2014-Apr-08 12:28N 35°32' E 139°58'0 0.0
2014-Apr-08 11:24N 35°32' E 139°59'0 0.0
2014-Apr-08 10:33N 35°32' E 139°59'0 0.0
2014-Apr-08 09:33N 35°32' E 139°59'0 0.0
2014-Apr-08 08:30N 35°32' E 139°59'1 1.2
2014-Apr-08 07:33N 35°32' E 139°57'1111.1
2014-Apr-08 06:33N 35°27' E 139°45'3 3.1
2014-Apr-08 05:31N 35°27' E 139°41'0 0.0
2014-Apr-08 04:31N 35°27' E 139°41'0 0.0
2014-Apr-08 03:31N 35°27' E 139°41'0 0.0
2014-Apr-08 02:31N 35°27' E 139°41'0 0.0
2014-Apr-08 01:31N 35°27' E 139°41'0 0.0
2014-Apr-08 00:31N 35°27' E 139°41'0 0.0
2014-Apr-07 23:31N 35°27' E 139°41'0 0.0
2014-Apr-07 22:31N 35°27' E 139°41'1 0.6
2014-Apr-07 21:33N 35°27' E 139°42'8 8.4
2014-Apr-07 20:33N 35°19' E 139°44'1010.3
2014-Apr-07 19:33N 35°08' E 139°45'2712.5
2014-Apr-07 17:25N 34°43' E 139°34'  

Dump ship's entire track history

sailing weather and tide predictions

Tancred — LALX4 — position and weather